createdAt,value
2023-03-16T00:01:07.549Z,3.43
2023-03-16T00:03:36.611Z,3.43
2023-03-16T00:06:05.764Z,3.39
2023-03-16T00:08:38.347Z,3.35
2023-03-16T00:11:06.512Z,3.29
2023-03-16T00:13:36.680Z,3.29
2023-03-16T00:16:05.196Z,3.29
2023-03-16T00:18:39.040Z,3.29
2023-03-16T00:21:07.341Z,3.20
2023-03-16T00:23:36.835Z,3.05
2023-03-16T00:26:08.770Z,2.94
2023-03-16T00:28:39.515Z,2.92
2023-03-16T00:31:11.944Z,2.90
2023-03-16T00:33:43.009Z,2.89
2023-03-16T00:36:11.760Z,2.88
2023-03-16T00:38:49.348Z,2.83
2023-03-16T00:41:18.464Z,2.77
2023-03-16T00:43:49.009Z,2.77
2023-03-16T00:46:17.678Z,2.75
2023-03-16T00:48:46.792Z,2.70
2023-03-16T00:51:16.450Z,2.57
2023-03-16T00:53:45.585Z,2.46
2023-03-16T00:56:14.202Z,2.35
2023-03-16T00:58:43.502Z,2.30
2023-03-16T01:01:18.914Z,2.24
2023-03-16T01:03:47.779Z,2.17
2023-03-16T01:06:17.290Z,2.05
2023-03-16T01:08:45.642Z,1.96
2023-03-16T01:11:18.598Z,1.97
2023-03-16T01:13:49.738Z,1.99
2023-03-16T01:16:23.766Z,2.00
2023-03-16T01:18:52.751Z,2.01
2023-03-16T01:21:21.892Z,1.99
2023-03-16T01:23:53.927Z,1.89
2023-03-16T01:26:23.266Z,1.83
2023-03-16T01:28:51.637Z,1.75
2023-03-16T01:31:19.893Z,1.68
2023-03-16T01:33:48.580Z,1.62
2023-03-16T01:36:21.589Z,1.65
2023-03-16T01:39:03.061Z,1.68
2023-03-16T01:41:38.834Z,1.73
2023-03-16T01:44:07.906Z,1.75
2023-03-16T01:46:37.989Z,1.78
2023-03-16T01:49:06.591Z,1.76
2023-03-16T01:51:46.339Z,1.80
2023-03-16T01:54:22.250Z,1.84
2023-03-16T01:57:11.923Z,1.88
2023-03-16T01:59:53.596Z,1.84
2023-03-16T02:02:24.315Z,1.86
2023-03-16T02:05:33.445Z,1.98
2023-03-16T02:08:03.193Z,2.15
2023-03-16T02:10:31.644Z,2.25
2023-03-16T02:13:00.063Z,2.32
2023-03-16T02:15:30.116Z,2.37
2023-03-16T02:18:00.360Z,2.45
2023-03-16T02:20:49.994Z,2.48
2023-03-16T02:23:19.725Z,2.49
2023-03-16T02:25:53.863Z,2.59
2023-03-16T02:28:27.346Z,2.71
2023-03-16T02:30:55.496Z,2.77
2023-03-16T02:33:23.948Z,2.86
2023-03-16T02:35:52.178Z,2.93
2023-03-16T02:38:21.075Z,2.99
2023-03-16T02:41:00.680Z,3.04
2023-03-16T02:43:33.660Z,3.03
2023-03-16T02:46:23.582Z,2.96
2023-03-16T02:48:58.558Z,2.99
2023-03-16T02:51:29.543Z,3.05
2023-03-16T02:53:58.407Z,3.11
2023-03-16T02:56:28.974Z,3.13
2023-03-16T02:58:57.955Z,3.13
2023-03-16T03:01:34.862Z,3.10
2023-03-16T03:04:04.669Z,3.07
2023-03-16T03:06:33.475Z,3.10
2023-03-16T03:09:03.977Z,3.17
2023-03-16T03:11:32.401Z,3.21
2023-03-16T03:14:01.095Z,3.21
2023-03-16T03:16:29.509Z,3.25
2023-03-16T03:18:58.953Z,3.31
2023-03-16T03:21:30.031Z,3.31
2023-03-16T03:23:58.234Z,3.25
2023-03-16T03:26:26.447Z,3.17
2023-03-16T03:28:56.173Z,3.14
2023-03-16T03:31:24.498Z,3.19
2023-03-16T03:33:53.841Z,3.23
2023-03-16T03:36:23.411Z,3.26
2023-03-16T03:38:54.883Z,3.22
2023-03-16T03:41:23.644Z,3.20
2023-03-16T03:43:52.917Z,3.24
2023-03-16T03:46:27.352Z,3.26
2023-03-16T03:48:58.386Z,3.22
2023-03-16T03:51:26.522Z,3.24
2023-03-16T03:54:16.923Z,3.25
2023-03-16T03:56:45.201Z,3.18
2023-03-16T03:59:16.639Z,3.15
2023-03-16T04:02:03.607Z,3.14
2023-03-16T04:04:44.315Z,3.15
2023-03-16T04:07:13.565Z,3.14
2023-03-16T04:09:42.143Z,3.07
2023-03-16T04:12:17.061Z,2.93
2023-03-16T04:14:45.779Z,2.80
2023-03-16T04:18:38.874Z,2.68
2023-03-16T04:21:12.643Z,2.60
2023-03-16T04:23:42.792Z,2.52
2023-03-16T04:26:11.315Z,2.46
2023-03-16T04:28:40.480Z,2.44
2023-03-16T04:31:13.093Z,2.44
2023-03-16T04:33:44.525Z,2.39
2023-03-16T04:36:13.406Z,2.37
2023-03-16T04:38:42.157Z,2.40
2023-03-16T04:41:11.621Z,2.39
2023-03-16T04:43:46.527Z,2.34
2023-03-16T04:46:21.034Z,2.25
2023-03-16T04:48:49.293Z,2.21
2023-03-16T04:51:17.464Z,2.18
2023-03-16T04:53:53.767Z,2.16
2023-03-16T04:56:33.896Z,2.18
2023-03-16T04:59:05.730Z,2.08
2023-03-16T05:01:48.586Z,2.06
2023-03-16T05:04:19.747Z,2.03
2023-03-16T05:06:48.438Z,2.04
2023-03-16T05:09:20.883Z,2.11
2023-03-16T05:11:49.885Z,2.12
2023-03-16T05:14:25.627Z,2.14
2023-03-16T05:17:08.160Z,2.15
2023-03-16T05:19:36.692Z,2.18
2023-03-16T05:22:06.671Z,2.19
2023-03-16T05:24:37.401Z,2.23
2023-03-16T05:27:08.597Z,2.28
2023-03-16T05:29:37.900Z,2.31
2023-03-16T05:32:06.800Z,2.34
2023-03-16T05:34:37.260Z,2.33
2023-03-16T05:37:06.298Z,2.36
2023-03-16T05:39:34.962Z,2.39
2023-03-16T05:42:05.144Z,2.41
2023-03-16T05:44:56.492Z,2.46
2023-03-16T05:47:41.000Z,2.49
2023-03-16T05:50:11.814Z,2.53
2023-03-16T05:52:44.810Z,2.59
2023-03-16T05:55:18.028Z,2.64
2023-03-16T05:57:49.904Z,2.65
2023-03-16T06:00:19.194Z,2.72
2023-03-16T06:02:51.425Z,2.76
2023-03-16T06:05:20.492Z,2.83
2023-03-16T06:07:50.135Z,2.85
2023-03-16T06:10:22.562Z,2.87
2023-03-16T06:12:52.124Z,2.92
2023-03-16T06:15:25.168Z,2.92
2023-03-16T06:17:56.397Z,2.91
2023-03-16T06:20:26.795Z,2.87
2023-03-16T06:22:56.655Z,2.92
2023-03-16T06:25:24.825Z,2.98
2023-03-16T06:27:53.607Z,3.04
2023-03-16T06:30:25.187Z,3.06
2023-03-16T06:32:53.731Z,3.09
2023-03-16T06:35:22.026Z,3.14
2023-03-16T06:38:03.564Z,3.13
2023-03-16T06:40:53.498Z,3.12
2023-03-16T06:43:23.010Z,3.13
2023-03-16T06:45:51.690Z,3.08
2023-03-16T06:48:20.038Z,3.12
2023-03-16T06:50:49.832Z,3.15
2023-03-16T06:53:22.495Z,3.14
2023-03-16T06:55:53.018Z,3.16
2023-03-16T06:58:21.971Z,3.23
2023-03-16T07:00:56.323Z,3.28
2023-03-16T07:03:25.193Z,3.29
2023-03-16T07:05:57.548Z,3.26
2023-03-16T07:08:26.119Z,3.25
2023-03-16T07:10:55.450Z,3.29
2023-03-16T07:13:24.136Z,3.35
2023-03-16T07:15:52.976Z,3.37
2023-03-16T07:18:21.508Z,3.37
2023-03-16T07:20:50.174Z,3.40
2023-03-16T07:23:18.398Z,3.45
2023-03-16T07:25:47.650Z,3.51
2023-03-16T07:28:19.419Z,3.54
2023-03-16T07:31:02.452Z,3.48
2023-03-16T07:33:34.873Z,3.46
2023-03-16T07:36:05.716Z,3.49
2023-03-16T07:38:35.413Z,3.47
2023-03-16T07:41:07.844Z,3.48
2023-03-16T07:43:38.179Z,3.49
2023-03-16T07:46:06.926Z,3.48
2023-03-16T07:48:38.241Z,3.45
2023-03-16T07:51:06.750Z,3.47
2023-03-16T07:53:35.387Z,3.53
2023-03-16T07:56:47.490Z,3.48
2023-03-16T07:59:24.451Z,3.49
2023-03-16T08:01:53.354Z,3.51
2023-03-16T08:04:22.419Z,3.48
2023-03-16T08:06:59.820Z,3.53
2023-03-16T08:09:31.703Z,3.60
2023-03-16T08:12:04.455Z,3.61
2023-03-16T08:14:37.867Z,3.67
2023-03-16T08:17:13.039Z,3.74
2023-03-16T08:19:48.397Z,3.76
2023-03-16T08:22:17.428Z,3.76
2023-03-16T08:24:47.239Z,3.85
2023-03-16T08:27:19.946Z,3.90
2023-03-16T08:29:54.508Z,4.00
2023-03-16T08:32:28.202Z,4.10
2023-03-16T08:34:57.384Z,4.09
2023-03-16T08:37:27.819Z,4.08
2023-03-16T08:39:56.133Z,4.10
2023-03-16T08:42:25.358Z,4.06
2023-03-16T08:45:00.474Z,3.97
2023-03-16T08:47:31.056Z,3.96
2023-03-16T08:50:00.343Z,3.96
2023-03-16T08:52:28.517Z,3.94
2023-03-16T08:55:03.405Z,3.95
2023-03-16T08:57:35.007Z,3.98
2023-03-16T09:00:13.051Z,3.98
2023-03-16T09:02:42.255Z,3.95
2023-03-16T09:05:11.638Z,3.95
2023-03-16T09:07:40.537Z,4.01
2023-03-16T09:10:13.451Z,4.07
2023-03-16T09:12:45.190Z,4.09
2023-03-16T09:15:14.155Z,4.09
2023-03-16T09:17:43.131Z,4.14
2023-03-16T09:20:22.355Z,4.13
2023-03-16T09:22:51.653Z,4.15
2023-03-16T09:25:20.560Z,4.15
2023-03-16T09:27:48.769Z,4.15
2023-03-16T09:30:19.114Z,4.14
2023-03-16T09:32:49.059Z,4.20
2023-03-16T09:35:17.747Z,4.26
2023-03-16T09:38:04.876Z,4.28
2023-03-16T09:40:34.162Z,4.24
2023-03-16T09:43:10.765Z,4.25
2023-03-16T09:46:02.205Z,4.29
2023-03-16T09:48:35.808Z,4.28
2023-03-16T09:51:07.805Z,4.28
2023-03-16T09:53:38.407Z,4.36
2023-03-16T09:56:11.027Z,4.40
2023-03-16T09:58:39.587Z,4.42
2023-03-16T10:01:34.649Z,4.49
2023-03-16T10:04:25.128Z,4.48
2023-03-16T10:07:10.114Z,4.40
2023-03-16T10:09:47.986Z,4.39
2023-03-16T10:12:16.984Z,4.37
2023-03-16T10:14:55.905Z,4.31
2023-03-16T10:17:26.786Z,4.36
2023-03-16T10:20:10.146Z,4.42
2023-03-16T10:22:41.041Z,4.51
2023-03-16T10:25:40.257Z,4.60
2023-03-16T10:28:20.759Z,4.61
2023-03-16T10:30:56.224Z,4.56
2023-03-16T10:33:31.539Z,4.53
2023-03-16T10:36:05.827Z,4.63
2023-03-16T10:38:55.388Z,4.74
2023-03-16T10:41:32.936Z,4.75
2023-03-16T10:44:16.856Z,4.75
2023-03-16T10:46:48.804Z,4.75
2023-03-16T10:49:42.113Z,4.73
2023-03-16T10:52:24.042Z,4.74
2023-03-16T10:55:00.419Z,4.67
2023-03-16T10:57:36.112Z,4.59
2023-03-16T11:00:25.768Z,4.58
2023-03-16T11:02:57.281Z,4.54
2023-03-16T11:05:31.496Z,4.45
2023-03-16T11:07:59.963Z,4.44
2023-03-16T11:10:33.348Z,4.42
2023-03-16T11:13:17.872Z,4.38
2023-03-16T11:16:01.618Z,4.33
2023-03-16T11:18:40.315Z,4.35
2023-03-16T11:21:17.309Z,4.41
2023-03-16T11:23:49.906Z,4.47
2023-03-16T11:26:25.355Z,4.45
2023-03-16T11:29:02.402Z,4.48
2023-03-16T11:32:06.117Z,4.46
2023-03-16T11:34:35.353Z,4.47
2023-03-16T11:37:25.776Z,4.48
2023-03-16T11:40:23.822Z,4.44
2023-03-16T11:43:11.084Z,4.46
2023-03-16T11:45:42.993Z,4.52
2023-03-16T11:48:27.657Z,4.53
2023-03-16T11:51:04.702Z,4.50
2023-03-16T11:54:25.169Z,4.51
2023-03-16T11:56:56.379Z,4.53
2023-03-16T11:59:52.092Z,4.49
2023-03-16T12:02:30.507Z,4.46
2023-03-16T12:05:14.838Z,4.50
2023-03-16T12:08:05.248Z,4.45
2023-03-16T12:10:49.736Z,4.44
2023-03-16T12:13:40.244Z,4.45
2023-03-16T12:16:17.576Z,4.38
2023-03-16T12:18:49.715Z,4.37
2023-03-16T12:21:32.301Z,4.39
2023-03-16T12:24:03.150Z,4.38
2023-03-16T12:26:37.164Z,4.42
2023-03-16T12:29:29.084Z,4.53
2023-03-16T12:32:03.430Z,4.57
2023-03-16T12:34:38.637Z,4.48
2023-03-16T12:37:29.727Z,4.46
2023-03-16T12:40:19.529Z,4.39
2023-03-16T12:43:07.025Z,4.30
2023-03-16T12:46:07.288Z,4.26
2023-03-16T12:48:46.567Z,4.23
2023-03-16T12:51:14.732Z,4.16
2023-03-16T12:53:55.052Z,4.16
2023-03-16T12:56:34.230Z,4.14
2023-03-16T12:59:05.978Z,3.98
2023-03-16T13:01:39.125Z,3.88
2023-03-16T13:04:31.010Z,3.83
2023-03-16T13:07:16.239Z,3.75
2023-03-16T13:09:52.311Z,3.67
2023-03-16T13:12:26.013Z,3.65
2023-03-16T13:14:57.264Z,3.67
2023-03-16T13:17:33.382Z,3.65
2023-03-16T13:20:06.608Z,3.70
2023-03-16T13:23:05.486Z,3.72
2023-03-16T13:25:42.805Z,3.66
2023-03-16T13:28:14.100Z,3.68
2023-03-16T13:30:47.344Z,3.69
2023-03-16T13:33:16.479Z,3.59
2023-03-16T13:35:45.425Z,3.54
2023-03-16T13:38:16.428Z,3.56
2023-03-16T13:40:53.298Z,3.56
2023-03-16T13:43:23.132Z,3.48
2023-03-16T13:45:52.169Z,3.46
2023-03-16T13:48:23.002Z,3.39
2023-03-16T13:50:57.732Z,3.39
2023-03-16T13:53:30.545Z,3.41
2023-03-16T13:56:04.382Z,3.40
2023-03-16T13:58:37.312Z,3.38
2023-03-16T14:01:29.585Z,3.34
2023-03-16T14:04:14.610Z,3.34
2023-03-16T14:06:53.935Z,3.33
2023-03-16T14:09:23.999Z,3.27
2023-03-16T14:11:52.143Z,3.27
2023-03-16T14:14:39.481Z,3.30
2023-03-16T14:17:16.287Z,3.29
2023-03-16T14:19:48.139Z,3.29
2023-03-16T14:22:18.853Z,3.29
2023-03-16T14:24:59.238Z,3.24
2023-03-16T14:27:44.295Z,3.30
2023-03-16T14:30:24.332Z,3.31
2023-03-16T14:32:58.411Z,3.24
2023-03-16T14:35:34.072Z,3.23
2023-03-16T14:38:36.139Z,3.24
2023-03-16T14:41:17.376Z,3.22
2023-03-16T14:43:48.198Z,3.16
2023-03-16T14:46:42.256Z,3.17
2023-03-16T14:49:30.741Z,3.20
2023-03-16T14:52:31.763Z,3.13
2023-03-16T14:55:03.524Z,3.13
2023-03-16T14:57:33.335Z,3.05
2023-03-16T15:00:01.971Z,3.04
2023-03-16T15:02:32.509Z,3.06
2023-03-16T15:05:03.883Z,3.02
2023-03-16T15:07:41.454Z,3.05
2023-03-16T15:10:15.989Z,3.05
2023-03-16T15:12:54.051Z,3.04
2023-03-16T15:15:23.881Z,3.09
2023-03-16T15:17:55.199Z,3.06
2023-03-16T15:20:30.334Z,3.05
2023-03-16T15:22:59.933Z,3.04
2023-03-16T15:25:37.320Z,3.03
2023-03-16T15:28:11.648Z,3.02
2023-03-16T15:30:40.410Z,2.99
2023-03-16T15:33:09.927Z,3.01
2023-03-16T15:35:38.402Z,2.98
2023-03-16T15:38:20.246Z,2.92
2023-03-16T15:40:51.201Z,2.93
2023-03-16T15:43:27.289Z,2.92
2023-03-16T15:45:57.465Z,2.85
2023-03-16T15:48:27.171Z,2.81
2023-03-16T15:51:01.192Z,2.83
2023-03-16T15:53:39.667Z,2.86
2023-03-16T15:56:10.095Z,2.80
2023-03-16T15:58:41.868Z,2.80
2023-03-16T16:01:23.641Z,2.82
2023-03-16T16:03:57.019Z,2.75
2023-03-16T16:06:25.298Z,2.71
2023-03-16T16:08:57.543Z,2.70
2023-03-16T16:11:26.510Z,2.71
2023-03-16T16:13:57.794Z,2.65
2023-03-16T16:16:30.268Z,2.66
2023-03-16T16:19:00.013Z,2.71
2023-03-16T16:21:34.822Z,2.70
2023-03-16T16:24:04.480Z,2.69
2023-03-16T16:26:53.287Z,2.72
2023-03-16T16:29:25.811Z,2.68
2023-03-16T16:31:55.432Z,2.67
2023-03-16T16:35:22.730Z,2.67
2023-03-16T16:37:51.221Z,2.65
2023-03-16T16:40:21.899Z,2.66
2023-03-16T16:42:54.560Z,2.65
2023-03-16T16:45:25.401Z,2.66
2023-03-16T16:47:55.872Z,2.68
2023-03-16T16:50:27.585Z,2.69
2023-03-16T16:52:57.393Z,2.72
2023-03-16T16:55:26.110Z,2.71
2023-03-16T16:57:54.574Z,2.69
2023-03-16T17:00:24.897Z,2.72
2023-03-16T17:02:57.584Z,2.75
2023-03-16T17:05:27.409Z,2.70
2023-03-16T17:07:57.234Z,2.69
2023-03-16T17:10:27.156Z,2.72
2023-03-16T17:12:57.512Z,2.72
2023-03-16T17:15:26.758Z,2.68
2023-03-16T17:18:09.606Z,2.70
2023-03-16T17:20:39.173Z,2.67
2023-03-16T17:23:27.877Z,2.63
2023-03-16T17:25:58.499Z,2.66
2023-03-16T17:28:27.408Z,2.67
2023-03-16T17:31:02.673Z,2.68
2023-03-16T17:33:31.927Z,2.63
2023-03-16T17:36:02.608Z,2.59
2023-03-16T17:38:31.618Z,2.61
2023-03-16T17:41:00.120Z,2.62
2023-03-16T17:43:32.913Z,2.58
2023-03-16T17:46:01.135Z,2.56
2023-03-16T17:48:29.901Z,2.57
2023-03-16T17:50:59.113Z,2.55
2023-03-16T17:53:27.451Z,2.59
2023-03-16T17:55:55.864Z,2.64
2023-03-16T17:58:29.028Z,2.61
2023-03-16T18:00:57.518Z,2.61
2023-03-16T18:03:28.089Z,2.62
2023-03-16T18:05:57.725Z,2.58
2023-03-16T18:08:28.902Z,2.56
2023-03-16T18:10:59.919Z,2.56
2023-03-16T18:13:39.262Z,2.55
2023-03-16T18:16:15.306Z,2.49
2023-03-16T18:18:44.127Z,2.47
2023-03-16T18:21:21.786Z,2.47
2023-03-16T18:23:50.794Z,2.45
2023-03-16T18:26:24.629Z,2.37
2023-03-16T18:28:53.600Z,2.38
2023-03-16T18:31:26.642Z,2.39
2023-03-16T18:33:57.735Z,2.33
2023-03-16T18:36:36.451Z,2.32
2023-03-16T18:39:19.020Z,2.36
2023-03-16T18:41:48.355Z,2.31
2023-03-16T18:44:25.958Z,2.32
2023-03-16T18:46:59.013Z,2.35
2023-03-16T18:49:35.628Z,2.29
2023-03-16T18:52:03.978Z,2.25
2023-03-16T18:54:35.444Z,2.23
2023-03-16T18:57:20.288Z,2.24
2023-03-16T18:59:49.134Z,2.18
2023-03-16T19:02:34.150Z,2.10
2023-03-16T19:05:03.216Z,2.10
2023-03-16T19:07:39.099Z,2.08
2023-03-16T19:10:20.898Z,2.00
2023-03-16T19:12:50.636Z,1.93
2023-03-16T19:15:23.470Z,1.95
2023-03-16T19:17:52.085Z,1.96
2023-03-16T19:20:22.855Z,1.92
2023-03-16T19:22:59.946Z,1.84
2023-03-16T19:25:32.443Z,1.86
2023-03-16T19:28:06.437Z,1.83
2023-03-16T19:30:36.036Z,1.75
2023-03-16T19:33:12.511Z,1.73
2023-03-16T19:35:51.470Z,1.77
2023-03-16T19:38:22.383Z,1.68
2023-03-16T19:40:56.342Z,1.66
2023-03-16T19:43:24.786Z,1.70
2023-03-16T19:45:55.031Z,1.70
2023-03-16T19:48:32.098Z,1.68
2023-03-16T19:51:01.012Z,1.65
2023-03-16T19:53:29.696Z,1.66
2023-03-16T19:55:58.049Z,1.67
2023-03-16T19:58:26.236Z,1.63
2023-03-16T20:00:54.684Z,1.63
2023-03-16T20:03:23.947Z,1.64
2023-03-16T20:05:53.630Z,1.60
2023-03-16T20:08:27.931Z,1.63
2023-03-16T20:11:04.207Z,1.68
2023-03-16T20:13:34.901Z,1.64
2023-03-16T20:16:03.576Z,1.64
2023-03-16T20:18:32.231Z,1.61
2023-03-16T20:21:17.364Z,1.60
2023-03-16T20:23:46.211Z,1.59
2023-03-16T20:26:20.350Z,1.57
2023-03-16T20:28:48.802Z,1.54
2023-03-16T20:31:25.043Z,1.58
2023-03-16T20:33:54.152Z,1.60
2023-03-16T20:36:22.412Z,1.56
2023-03-16T20:38:55.521Z,1.55
2023-03-16T20:41:29.683Z,1.59
2023-03-16T20:43:59.151Z,1.58
2023-03-16T20:46:31.002Z,1.57
2023-03-16T20:49:03.652Z,1.58
2023-03-16T20:51:31.833Z,1.59
2023-03-16T20:54:00.196Z,1.58
2023-03-16T20:56:28.706Z,1.53
2023-03-16T20:58:57.087Z,1.52
2023-03-16T21:01:26.570Z,1.59
2023-03-16T21:03:57.376Z,1.57
2023-03-16T21:06:30.561Z,1.53
2023-03-16T21:09:00.377Z,1.52
2023-03-16T21:11:38.269Z,1.51
2023-03-16T21:14:07.379Z,1.46
2023-03-16T21:16:35.762Z,1.48
2023-03-16T21:19:11.919Z,1.47
2023-03-16T21:21:42.035Z,1.49
2023-03-16T21:24:12.784Z,1.49
2023-03-16T21:26:41.321Z,1.44
2023-03-16T21:29:16.082Z,1.43
2023-03-16T21:31:46.415Z,1.46
2023-03-16T21:34:23.860Z,1.43
2023-03-16T21:36:56.668Z,1.37
2023-03-16T21:39:25.500Z,1.39
2023-03-16T21:41:53.856Z,1.40
2023-03-16T21:44:22.787Z,1.37
2023-03-16T21:46:51.372Z,1.37
2023-03-16T21:49:19.864Z,1.40
2023-03-16T21:51:50.096Z,1.39
2023-03-16T21:54:19.385Z,1.42
2023-03-16T21:56:48.672Z,1.43
2023-03-16T21:59:16.882Z,1.39
2023-03-16T22:02:01.157Z,1.42
2023-03-16T22:04:31.310Z,1.46
2023-03-16T22:06:59.783Z,1.43
2023-03-16T22:09:30.493Z,1.49
2023-03-16T22:11:59.249Z,1.46
2023-03-16T22:14:31.686Z,1.45
2023-03-16T22:17:02.739Z,1.51
2023-03-16T22:19:31.546Z,1.48
2023-03-16T22:22:02.480Z,1.49
2023-03-16T22:24:36.007Z,1.52
2023-03-16T22:27:04.522Z,1.55
2023-03-16T22:29:34.989Z,1.52
2023-03-16T22:32:07.043Z,1.49
2023-03-16T22:34:42.469Z,1.51
2023-03-16T22:37:11.110Z,1.49
2023-03-16T22:39:39.678Z,1.46
2023-03-16T22:42:28.031Z,1.50
2023-03-16T22:44:56.599Z,1.52
2023-03-16T22:47:26.830Z,1.48
2023-03-16T22:49:55.585Z,1.51
2023-03-16T22:52:32.450Z,1.55
2023-03-16T22:55:02.495Z,1.51
2023-03-16T22:57:30.962Z,1.47
2023-03-16T23:00:01.367Z,1.52
2023-03-16T23:02:30.649Z,1.52
2023-03-16T23:04:59.025Z,1.53
2023-03-16T23:07:28.037Z,1.56
2023-03-16T23:09:57.103Z,1.54
2023-03-16T23:12:27.149Z,1.54
2023-03-16T23:14:57.524Z,1.52
2023-03-16T23:17:25.959Z,1.44
2023-03-16T23:19:54.880Z,1.45
2023-03-16T23:22:24.807Z,1.52
2023-03-16T23:24:53.022Z,1.50
2023-03-16T23:27:22.372Z,1.51
2023-03-16T23:29:50.680Z,1.54
2023-03-16T23:32:18.943Z,1.49
2023-03-16T23:34:47.998Z,1.49
2023-03-16T23:37:17.075Z,1.46
2023-03-16T23:39:45.833Z,1.49
2023-03-16T23:42:13.953Z,1.55
2023-03-16T23:44:43.140Z,1.55
2023-03-16T23:47:12.482Z,1.55
2023-03-16T23:49:47.961Z,1.60
2023-03-16T23:52:16.814Z,1.58
2023-03-16T23:54:45.109Z,1.59
2023-03-16T23:57:13.376Z,1.65
2023-03-16T23:59:42.315Z,1.63
